四国お遍路ツアー!!

LUXURY FLIGHT

03-6423-7371

羽田本店:東京都大田区羽田5-11-1
営業時間:10:00~20:00
定休日:年中無休

セントレア店:愛知県常滑市セントレア1-1
営業時間:10:00~20:00
定休日:年中無休

lv

四国お遍路ツアー!!

STAFF BLOG

2020/01/31 四国お遍路ツアー!!

皆様こんにちはーーーー

 

本日の羽田周辺METARは…

 

RJTT 310400Z 34023KT 9999 FEW030 SCT070 11/M05 Q1002

TEMPO 33023G33KT

 

風が少々強めでございます!!

 

おかげさまで皆様に告知をさせて頂いてから、

737退役キャンペーン、ご好評をいただき絶好調でございまーす

 

本当にありがとうございます。

 

弊社が創業当初から頑張ってくれている737クン。

 

機齢は間も無く10年を迎えます。

アップデートを繰り替しながら、日々一生懸命頑張ってくれています。

 

 

そんな中、遠く四国松山の地から毎月のように来てくださるN様!!

 

本日は松山→高知→徳島→高松→松山と四国の各空港へ。

 

しっかりとチャート類を確認しながら所要時間120分のロングフライトを一緒に楽しみましたーー!!!

 

 

 

img_4757

 

途中の悪天候やゴーアラウンドなどハプニングも多くありましたが、

その都度、「無理は絶対しない。」をポリシーに的確な判断をコパイの私に示してくださいました!

 

途中、燃料が心細くなった時には、残燃料を根拠に先を見据えたルート変更などなど、

ナイスな判断の連続でした。

 

日々、管理者としてお仕事をされている方なので、

それをフライトに置き換えての判断が素晴らしい!!

 

なーーんて私が言うのも偉そうで、すみません…

 

とはいえ、フライトを通して常に最悪を想定しながらの考え方は、

まさにパイロットかと、私は思います。

 

引き続き、楽しみながらも「学び」のフライトを頑張ってまいりましょう!!!

 

 

いつもいつも、本当にありがとうございます。

 

 

「感謝」

TOP